Time;durP1;ratioP1;P1;durP2;ratioP2;P2;SDS_P1;SDS_P2;PMS_P1;PMS_P2;Temp;Humidity;BMP_temperature;BMP_pressure;BME280_temperature;BME280_humidity;BME280_pressure;Samples;Min_cycle;Max_cycle;Signal;HPM_P1;HPM_P2
2023/05/26 00:00:11;;;;;;;10.82;5.50;;;;;;;9.01;44.98;96405.63;4901419;28;20318;-72
2023/05/26 00:02:37;;;;;;;10.65;5.38;;;;;;;9.06;44.63;96406.00;4900193;29;20032;-72
2023/05/26 00:05:03;;;;;;;11.02;4.93;;;;;;;9.05;44.47;96410.47;4904096;29;20040;-72
2023/05/26 00:07:29;;;;;;;11.18;5.15;;;;;;;8.95;44.94;96415.03;4900910;29;20048;-71
2023/05/26 00:09:55;;;;;;;12.63;5.43;;;;;;;8.95;44.67;96412.38;4935064;28;20060;-71
2023/05/26 00:12:20;;;;;;;12.30;5.55;;;;;;;9.04;44.43;96415.94;4904430;29;20047;-72
2023/05/26 00:14:46;;;;;;;14.05;5.40;;;;;;;9.00;44.12;96418.06;4903816;29;20040;-72
2023/05/26 00:17:12;;;;;;;13.07;5.60;;;;;;;9.04;43.92;96413.28;4904667;29;20042;-71
2023/05/26 00:19:38;;;;;;;10.82;5.38;;;;;;;8.96;44.56;96411.38;4904372;28;20611;-72
2023/05/26 00:22:04;;;;;;;10.52;5.50;;;;;;;8.94;44.83;96410.63;4918890;28;20176;-72
2023/05/26 00:24:30;;;;;;;14.68;5.63;;;;;;;9.03;44.18;96416.91;4903062;29;20172;-72
2023/05/26 00:26:55;;;;;;;12.02;5.47;;;;;;;8.97;44.44;96414.88;4904407;28;20044;-72
2023/05/26 00:29:21;;;;;;;15.85;5.50;;;;;;;8.81;44.35;96409.16;4904283;29;20683;-72
2023/05/26 00:31:46;;;;;;;18.40;5.47;;;;;;;8.77;45.27;96414.94;4904514;28;20484;-72
2023/05/26 00:34:11;;;;;;;12.38;5.43;;;;;;;8.67;45.67;96407.03;4934253;28;20118;-71
2023/05/26 00:36:37;;;;;;;19.15;6.00;;;;;;;8.54;45.58;96412.66;4901321;29;20051;-72
2023/05/26 00:39:02;;;;;;;18.48;5.72;;;;;;;8.37;47.30;96419.56;4903840;28;20040;-71
2023/05/26 00:41:28;;;;;;;14.27;5.13;;;;;;;8.52;46.37;96409.28;4904751;29;20032;-72
2023/05/26 00:43:53;;;;;;;14.00;5.43;;;;;;;8.64;46.15;96412.63;4902696;29;20040;-71
2023/05/26 00:46:19;;;;;;;15.25;5.43;;;;;;;8.66;45.86;96408.81;4904256;28;20478;-72
2023/05/26 00:48:44;;;;;;;13.40;5.32;;;;;;;8.68;45.15;96403.38;4904382;29;20154;-71
2023/05/26 00:51:11;;;;;;;13.07;5.13;;;;;;;8.69;45.30;96405.03;4904368;28;20154;-71
2023/05/26 00:53:39;;;;;;;13.73;5.28;;;;;;;8.68;45.12;96400.72;4933799;29;20606;-71
2023/05/26 00:56:05;;;;;;;14.15;5.95;;;;;;;8.65;46.65;96401.84;4917985;29;20044;-72
2023/05/26 00:58:30;;;;;;;15.25;5.80;;;;;;;8.51;45.84;96407.63;4918041;29;20078;-72
2023/05/26 01:00:57;;;;;;;15.80;6.22;;;;;;;7.60;47.78;96396.47;4907193;29;20609;-82
2023/05/26 01:03:23;;;;;;;14.93;5.70;;;;;;;7.57;48.54;96402.88;4913333;28;20051;-82
2023/05/26 01:05:48;;;;;;;17.50;6.18;;;;;;;7.86;47.66;96398.56;4930009;29;20035;-82
2023/05/26 01:08:14;;;;;;;11.95;5.35;;;;;;;8.09;47.64;96391.13;4930354;29;20036;-82
2023/05/26 01:10:39;;;;;;;13.20;5.25;;;;;;;8.10;46.75;96394.63;4915534;28;20071;-82
2023/05/26 01:13:12;;;;;;;14.70;5.43;;;;;;;8.11;46.99;96398.94;4946945;28;20038;-82
2023/05/26 01:15:41;;;;;;;16.67;5.32;;;;;;;8.18;46.68;96397.41;4902034;29;20044;-82
2023/05/26 01:18:10;;;;;;;;;;;;;;;8.21;46.68;96401.56;4914440;28;20042;-81
2023/05/26 01:20:40;;;;;;;13.00;5.07;;;;;;;8.21;47.74;96410.38;4916345;29;19919;-82
2023/05/26 01:23:08;;;;;;;13.27;5.22;;;;;;;8.04;47.23;96402.19;4945989;28;20104;-82
2023/05/26 01:25:52;;;;;;;14.10;5.32;;;;;;;7.95;46.87;96402.19;4917240;29;20090;-82
2023/05/26 01:28:20;;;;;;;10.10;5.10;;;;;;;8.11;48.27;96398.94;4918482;28;20111;-82
2023/05/26 01:30:45;;;;;;;15.63;5.27;;;;;;;8.16;47.99;96396.72;4928515;29;20067;-82
2023/05/26 01:33:11;;;;;;;19.50;5.65;;;;;;;8.02;46.98;96397.97;4914433;29;20095;-82
2023/05/26 01:35:36;;;;;;;13.43;5.57;;;;;;;7.85;49.57;96397.72;4914100;28;20032;-82
2023/05/26 01:38:02;;;;;;;12.57;5.45;;;;;;;7.90;49.84;96403.47;4912526;28;20043;-81
2023/05/26 01:40:28;;;;;;;17.77;5.57;;;;;;;7.97;47.64;96406.38;4915096;29;20043;-82
2023/05/26 01:43:02;;;;;;;11.00;5.07;;;;;;;8.17;47.17;96403.69;4915494;29;20056;-82
2023/05/26 01:45:37;;;;;;;14.63;5.53;;;;;;;8.13;47.07;96404.97;4930306;29;20056;-82
2023/05/26 01:48:03;;;;;;;17.48;5.40;;;;;;;8.07;47.06;96405.50;4929414;29;20146;-83
2023/05/26 01:50:52;;;;;;;17.25;5.25;;;;;;;7.74;47.70;96405.81;4947453;28;20028;-82
2023/05/26 01:53:19;;;;;;;14.15;5.10;;;;;;;7.96;46.94;96403.88;4912861;29;20059;-82
2023/05/26 01:55:45;;;;;;;14.45;5.30;;;;;;;8.05;46.74;96403.84;4931769;29;20028;-83
2023/05/26 01:58:11;;;;;;;12.98;5.15;;;;;;;8.02;47.21;96409.44;4947957;28;20054;-82
2023/05/26 02:00:36;;;;;;;12.48;5.60;;;;;;;7.93;47.07;96412.94;4916828;29;20028;-82
2023/05/26 02:03:02;;;;;;;13.60;5.10;;;;;;;7.96;47.24;96412.63;4930383;29;20036;-82
2023/05/26 02:05:27;;;;;;;14.68;5.00;;;;;;;8.01;46.66;96407.75;4916476;29;20031;-82
2023/05/26 02:07:52;;;;;;;15.73;5.43;;;;;;;7.99;47.57;96411.53;4915925;29;20048;-82
2023/05/26 02:10:18;;;;;;;13.60;5.00;;;;;;;7.93;48.00;96405.00;4916836;28;20082;-82
2023/05/26 02:12:43;;;;;;;14.95;5.68;;;;;;;7.94;47.19;96413.75;4948450;29;20100;-82
2023/05/26 02:15:09;;;;;;;13.50;5.03;;;;;;;7.88;48.00;96416.00;4919361;28;20050;-82
2023/05/26 02:17:35;;;;;;;16.10;5.45;;;;;;;7.91;47.28;96405.13;4916986;29;20036;-82
2023/05/26 02:20:02;;;;;;;14.40;5.60;;;;;;;7.95;47.84;96403.03;4914687;28;20392;-82
2023/05/26 02:22:27;;;;;;;16.42;5.10;;;;;;;7.89;47.28;96404.41;4945263;28;20048;-82
2023/05/26 02:24:53;;;;;;;20.92;5.30;;;;;;;7.83;47.70;96409.47;4920045;29;20029;-82
2023/05/26 02:27:18;;;;;;;14.98;4.97;;;;;;;7.80;48.06;96413.22;4917370;28;20098;-82
2023/05/26 02:29:44;;;;;;;16.27;5.63;;;;;;;7.84;48.21;96411.97;4916912;29;20020;-82
2023/05/26 02:32:10;;;;;;;16.10;5.68;;;;;;;7.74;47.73;96406.66;4914403;28;20044;-81
2023/05/26 02:34:35;;;;;;;25.05;6.10;;;;;;;7.97;47.46;96406.38;4947908;28;20087;-82
2023/05/26 02:37:01;;;;;;;18.05;5.85;;;;;;;7.88;47.41;96402.75;4942800;29;20181;-82
2023/05/26 02:39:26;;;;;;;16.20;5.45;;;;;;;7.95;47.61;96407.50;4911239;28;20072;-82
2023/05/26 02:41:51;;;;;;;16.30;5.50;;;;;;;7.86;47.99;96401.22;4911682;29;20342;-82
2023/05/26 02:44:17;;;;;;;12.38;4.72;;;;;;;7.86;48.31;96406.53;4911530;28;20040;-82
2023/05/26 02:46:42;;;;;;;14.60;5.72;;;;;;;7.79;48.03;96398.31;4915180;28;20283;-82
2023/05/26 02:49:08;;;;;;;23.73;6.13;;;;;;;7.70;47.92;96399.09;4915903;29;20028;-82
2023/05/26 02:51:35;;;;;;;16.45;5.10;;;;;;;7.87;47.72;96393.13;4914909;28;20043;-82
2023/05/26 02:54:00;;;;;;;17.63;5.70;;;;;;;7.90;47.20;96400.81;4918338;29;20530;-79
2023/05/26 02:56:26;;;;;;;20.55;5.72;;;;;;;7.89;47.35;96400.94;4919533;29;20016;-82
2023/05/26 02:58:51;;;;;;;23.50;5.75;;;;;;;7.73;48.19;96404.13;4917458;28;20048;-82
2023/05/26 03:01:17;;;;;;;20.83;5.82;;;;;;;7.73;47.80;96404.97;4917594;29;20028;-82
2023/05/26 03:03:42;;;;;;;16.85;5.00;;;;;;;7.86;47.45;96402.03;4916092;29;20043;-82
2023/05/26 03:06:08;;;;;;;15.10;5.38;;;;;;;7.79;47.37;96404.44;4916678;28;20504;-82
2023/05/26 03:08:34;;;;;;;10.60;5.20;;;;;;;7.72;47.46;96397.97;4918682;29;20031;-82
2023/05/26 03:10:59;;;;;;;15.02;5.30;;;;;;;7.74;47.05;96401.34;4916050;29;20054;-82
2023/05/26 03:13:25;;;;;;;15.07;5.03;;;;;;;7.76;47.62;96399.38;4918311;29;20033;-82
2023/05/26 03:15:50;;;;;;;12.52;4.63;;;;;;;7.76;47.20;96404.69;4918477;28;20062;-82
2023/05/26 03:18:16;;;;;;;13.10;5.25;;;;;;;7.83;47.20;96401.50;4915786;28;20242;-82
2023/05/26 03:20:43;;;;;;;16.00;5.30;;;;;;;7.76;47.44;96399.38;4915511;29;20055;-82
2023/05/26 03:23:08;;;;;;;14.88;4.93;;;;;;;7.72;47.09;96397.97;4914913;29;20061;-82
2023/05/26 03:25:34;;;;;;;16.05;5.40;;;;;;;7.63;48.22;96399.69;4930506;29;20103;-82
2023/05/26 03:27:59;;;;;;;15.55;4.80;;;;;;;7.62;47.55;96399.81;4919161;29;20040;-82
2023/05/26 03:30:25;;;;;;;15.80;5.53;;;;;;;7.58;47.50;96406.38;4920766;28;20071;-82
2023/05/26 03:32:50;;;;;;;20.90;6.18;;;;;;;7.38;48.91;96396.59;4920680;29;20040;-82
2023/05/26 03:35:16;;;;;;;15.30;4.85;;;;;;;7.37;48.54;96397.59;4917900;29;20056;-82
2023/05/26 03:37:41;;;;;;;22.83;5.95;;;;;;;7.33;49.46;96393.53;4918628;29;20033;-83
2023/05/26 03:40:08;;;;;;;18.67;5.82;;;;;;;7.35;48.40;96402.16;4924063;28;20032;-82
2023/05/26 03:42:33;;;;;;;25.15;5.45;;;;;;;7.39;48.47;96394.78;4955445;28;20032;-82
2023/05/26 03:44:59;;;;;;;19.30;6.05;;;;;;;7.37;48.90;96402.88;4923113;29;20051;-82
2023/05/26 03:47:24;;;;;;;17.70;5.63;;;;;;;7.23;48.85;96397.97;4923232;28;20048;-82
2023/05/26 03:49:50;;;;;;;17.92;6.28;;;;;;;7.39;48.07;96392.16;4922865;29;20052;-82
2023/05/26 03:52:15;;;;;;;20.77;5.90;;;;;;;7.39;48.38;96392.97;4920467;28;20043;-82
2023/05/26 03:54:44;;;;;;;16.38;5.75;;;;;;;7.40;48.42;96393.81;4930686;29;20103;-82
2023/05/26 03:57:09;;;;;;;19.40;5.75;;;;;;;7.46;48.46;96393.28;4917465;29;20063;-82
2023/05/26 03:59:35;;;;;;;16.67;5.28;;;;;;;7.49;49.57;96392.16;4915599;29;20044;-83
2023/05/26 04:02:01;;;;;;;23.60;5.80;;;;;;;7.49;48.88;96385.03;4915891;28;20040;-82
2023/05/26 04:04:26;;;;;;;20.63;5.70;;;;;;;7.60;48.91;96384.06;4913801;29;20103;-82
2023/05/26 04:06:52;;;;;;;22.27;5.60;;;;;;;7.50;48.98;96384.06;4905871;28;20040;-83
2023/05/26 04:09:17;;;;;;;23.45;6.10;;;;;;;7.41;49.55;96392.81;4909312;29;20471;-82
2023/05/26 04:11:43;;;;;;;22.13;5.72;;;;;;;7.41;49.35;96395.47;4911374;28;20040;-83
2023/05/26 04:14:08;;;;;;;22.23;6.53;;;;;;;7.19;49.50;96401.88;4913103;28;20035;-82
2023/05/26 04:16:33;;;;;;;19.73;5.78;;;;;;;7.39;49.15;96400.91;4912955;29;20040;-82
2023/05/26 04:18:59;;;;;;;18.75;5.30;;;;;;;7.44;49.37;96391.75;4911771;28;20067;-83
2023/05/26 04:21:24;;;;;;;11.68;4.50;;;;;;;7.58;49.11;96399.25;4911390;29;20515;-82
2023/05/26 04:23:52;;;;;;;15.95;5.15;;;;;;;7.78;48.41;96402.78;4912196;28;20055;-82
2023/05/26 04:26:18;;;;;;;19.50;5.65;;;;;;;7.83;48.72;96409.47;4911249;28;20064;-82
2023/05/26 04:28:46;;;;;;;16.92;4.97;;;;;;;7.78;48.86;96409.88;4910113;29;20032;-82
2023/05/26 04:31:16;;;;;;;20.33;5.90;;;;;;;7.84;48.89;96406.66;4910567;28;20448;-83
2023/05/26 04:33:42;;;;;;;19.42;5.03;;;;;;;7.67;49.18;96402.88;4910384;29;20649;-82
2023/05/26 04:36:10;;;;;;;21.63;5.82;;;;;;;7.87;48.87;96405.53;4906912;28;20044;-82
2023/05/26 04:38:36;;;;;;;;;;;;;;;7.95;48.05;96410.97;4936601;29;20055;-82
2023/05/26 04:41:06;;;;;;;17.92;4.80;;;;;;;7.97;49.04;96409.03;4904720;29;20054;-83
2023/05/26 04:43:34;;;;;;;21.50;5.82;;;;;;;8.18;47.77;96408.84;4935678;28;20068;-82
2023/05/26 04:46:01;;;;;;;21.67;6.07;;;;;;;8.30;47.58;96411.34;4905780;29;20082;-83
2023/05/26 04:48:27;;;;;;;22.27;5.10;;;;;;;8.43;47.28;96414.50;4907237;29;20570;-83
2023/05/26 04:50:53;;;;;;;21.10;5.75;;;;;;;8.39;47.90;96415.78;4907301;28;20418;-83
2023/05/26 04:53:18;;;;;;;19.00;5.18;;;;;;;8.38;47.44;96419.41;4905425;29;20503;-83
2023/05/26 04:55:44;;;;;;;20.70;5.95;;;;;;;8.12;48.49;96417.38;4903817;28;20048;-83
2023/05/26 04:58:10;;;;;;;18.98;5.35;;;;;;;8.41;48.27;96426.25;4934007;28;20028;-83
2023/05/26 05:00:36;;;;;;;20.63;5.45;;;;;;;8.51;48.07;96421.75;4903770;29;20060;-83
2023/05/26 05:03:03;;;;;;;15.43;4.90;;;;;;;8.81;47.57;96426.94;4902678;29;20028;-82
2023/05/26 05:05:29;;;;;;;17.73;4.95;;;;;;;9.02;46.89;96429.38;4903937;29;20059;-82
2023/05/26 05:07:54;;;;;;;26.23;6.25;;;;;;;8.96;46.85;96424.66;4903725;28;20526;-82
2023/05/26 05:10:20;;;;;;;17.40;5.47;;;;;;;9.20;46.46;96428.56;4903672;29;20066;-83
2023/05/26 05:12:46;;;;;;;21.42;6.20;;;;;;;9.40;46.13;96431.09;4906156;29;20032;-82
2023/05/26 05:15:11;;;;;;;22.05;5.68;;;;;;;9.52;45.94;96432.53;4902515;28;20036;-83
2023/05/26 05:17:37;;;;;;;24.83;6.18;;;;;;;9.42;45.98;96437.13;4920203;29;20341;-83
2023/05/26 05:20:03;;;;;;;19.10;5.60;;;;;;;9.42;46.16;96437.13;4903014;29;20338;-83
2023/05/26 05:22:29;;;;;;;17.83;5.00;;;;;;;9.82;45.43;96442.94;4904183;28;20036;-83
2023/05/26 05:24:54;;;;;;;20.13;5.75;;;;;;;10.09;45.15;96439.38;4908447;29;20036;-83
2023/05/26 05:27:20;;;;;;;22.73;6.05;;;;;;;10.12;45.02;96442.72;4904971;28;20059;-83
2023/05/26 05:29:45;;;;;;;21.30;5.47;;;;;;;10.34;44.83;96444.06;4905934;29;20488;-83
2023/05/26 05:32:11;;;;;;;20.50;4.97;;;;;;;10.64;44.05;96444.53;4917631;28;20725;-83
2023/05/26 05:34:36;;;;;;;22.33;5.28;;;;;;;10.53;44.45;96444.81;4903487;28;20372;-83
2023/05/26 05:37:02;;;;;;;19.52;5.75;;;;;;;10.80;43.99;96456.28;4930938;29;20099;-82
2023/05/26 05:39:27;;;;;;;21.15;5.80;;;;;;;10.84;43.44;96450.47;4900210;29;20287;-83
2023/05/26 05:41:53;;;;;;;26.77;5.75;;;;;;;11.02;43.44;96459.38;4901971;29;20142;-83
2023/05/26 05:44:18;;;;;;;21.17;5.88;;;;;;;11.16;42.91;96455.31;4902590;28;20507;-82
2023/05/26 05:46:44;;;;;;;22.83;5.70;;;;;;;11.39;42.71;96458.19;4902821;28;20078;-82
2023/05/26 05:49:09;;;;;;;18.35;5.18;;;;;;;11.47;42.64;96468.91;4903661;29;20078;-82
2023/05/26 05:51:35;;;;;;;15.57;4.70;;;;;;;11.62;42.59;96468.25;4902305;28;20048;-82
2023/05/26 05:54:01;;;;;;;20.90;5.15;;;;;;;11.57;42.58;96473.25;4903809;28;20051;-82
2023/05/26 05:56:26;;;;;;;27.80;5.13;;;;;;;11.82;41.97;96474.13;4918031;29;20121;-83
2023/05/26 05:58:52;;;;;;;20.33;5.47;;;;;;;11.83;41.96;96462.44;4904034;29;20055;-82
2023/05/26 06:01:17;;;;;;;18.52;5.53;;;;;;;11.71;42.03;96475.28;4903478;29;20046;-82
2023/05/26 06:03:42;;;;;;;19.60;4.50;;;;;;;12.01;42.02;96474.81;4907137;29;20504;-82
2023/05/26 06:06:08;;;;;;;21.13;5.22;;;;;;;12.14;41.52;96475.19;4902111;29;20024;-82
2023/05/26 06:08:33;;;;;;;25.63;5.82;;;;;;;12.26;41.24;96474.84;4904058;29;20099;-82
2023/05/26 06:10:59;;;;;;;16.15;4.75;;;;;;;12.49;40.74;96474.16;4932627;28;20503;-83
2023/05/26 06:13:24;;;;;;;18.30;5.20;;;;;;;12.17;41.41;96484.69;4905414;29;20056;-82
2023/05/26 06:15:50;;;;;;;19.70;4.65;;;;;;;12.59;40.91;96482.84;4906380;29;20035;-82
2023/05/26 06:18:15;;;;;;;20.77;5.57;;;;;;;12.66;40.02;96483.81;4903497;28;20028;-82
2023/05/26 06:20:41;;;;;;;16.10;4.88;;;;;;;12.91;40.04;96480.22;4902950;29;20036;-82
2023/05/26 06:23:06;;;;;;;19.08;5.10;;;;;;;13.08;39.96;96477.56;4902829;28;20428;-82
2023/05/26 06:25:31;;;;;;;20.73;5.68;;;;;;;13.25;39.58;96479.16;4918713;29;20063;-82
2023/05/26 06:27:57;;;;;;;20.65;5.38;;;;;;;13.36;39.13;96482.44;4902150;29;20302;-82
2023/05/26 06:30:23;;;;;;;17.30;4.47;;;;;;;13.13;39.44;96473.31;4901875;28;20044;-82
2023/05/26 06:32:48;;;;;;;12.40;4.32;;;;;;;13.17;39.13;96482.69;4903494;29;20286;-82
2023/05/26 06:35:14;;;;;;;19.45;5.10;;;;;;;13.29;39.97;96485.81;4903780;28;20114;-82
2023/05/26 06:37:39;;;;;;;20.48;5.03;;;;;;;13.36;39.81;96487.78;4907587;29;20024;-82
2023/05/26 06:40:05;;;;;;;14.70;4.97;;;;;;;14.06;39.14;96491.41;4904780;28;20040;-82
2023/05/26 06:42:30;;;;;;;19.13;5.50;;;;;;;14.10;37.92;96486.53;4906237;28;20055;-82
2023/05/26 06:44:56;;;;;;;19.83;5.70;;;;;;;14.52;37.19;96487.00;4902557;29;20047;-69
2023/05/26 06:47:23;;;;;;;18.48;6.10;;;;;;;14.56;37.10;96492.84;4899203;28;20103;-68
2023/05/26 06:49:49;;;;;;;23.33;6.45;;;;;;;14.77;36.92;96496.69;4898718;29;20024;-69
2023/05/26 06:52:15;;;;;;;24.52;5.38;;;;;;;14.66;36.85;96492.56;4895390;28;20131;-69
2023/05/26 06:54:41;;;;;;;18.98;5.03;;;;;;;14.71;36.64;96496.38;4899133;28;20032;-69
2023/05/26 06:57:06;;;;;;;19.25;5.07;;;;;;;15.05;35.96;96496.03;4898250;29;20523;-69
2023/05/26 06:59:31;;;;;;;27.67;8.50;;;;;;;14.92;36.21;96494.84;4897934;28;20048;-69
2023/05/26 07:01:57;;;;;;;20.00;5.47;;;;;;;15.08;35.87;96491.16;4900913;29;20162;-68
2023/05/26 07:04:22;;;;;;;19.67;5.57;;;;;;;15.23;35.77;96493.81;4900581;28;20032;-68
2023/05/26 07:06:48;;;;;;;24.90;9.07;;;;;;;15.10;36.41;96493.66;4899964;28;20043;-68
2023/05/26 07:09:13;;;;;;;15.18;5.18;;;;;;;15.37;36.06;96499.38;4861486;29;1101184;-69
2023/05/26 07:11:38;;;;;;;18.08;5.50;;;;;;;15.41;35.89;96499.81;4929438;28;20526;-68
2023/05/26 07:14:04;;;;;;;19.00;7.82;;;;;;;15.17;35.88;96499.09;4901438;29;20039;-68
2023/05/26 07:16:29;;;;;;;18.88;7.65;;;;;;;15.16;36.12;96505.47;4907119;29;20036;-68
2023/05/26 07:18:55;;;;;;;24.02;9.73;;;;;;;15.15;35.77;96499.28;4904427;28;20683;-68
2023/05/26 07:21:22;;;;;;;18.23;9.15;;;;;;;15.24;35.21;96505.38;4905434;29;20040;-69
2023/05/26 07:23:48;;;;;;;19.63;12.00;;;;;;;15.32;34.93;96510.66;4905590;28;20475;-69
2023/05/26 07:26:13;;;;;;;19.58;9.90;;;;;;;15.42;34.77;96501.47;4905780;28;20064;-69
2023/05/26 07:28:40;;;;;;;24.90;15.77;;;;;;;15.50;35.55;96501.34;4905743;29;20039;-69
2023/05/26 07:31:06;;;;;;;25.65;17.38;;;;;;;15.61;34.76;96508.94;4905509;28;20488;-69
2023/05/26 07:33:31;;;;;;;24.67;15.07;;;;;;;15.74;34.27;96497.53;4905137;29;20047;-69
2023/05/26 07:35:57;;;;;;;22.60;13.88;;;;;;;15.78;34.35;96505.22;4904905;28;20063;-68
2023/05/26 07:38:22;;;;;;;30.17;16.08;;;;;;;15.75;35.42;96509.94;4903310;28;20052;-68
2023/05/26 07:40:48;;;;;;;25.50;12.23;;;;;;;16.06;34.69;96504.47;4905334;29;20075;-69
2023/05/26 07:43:13;;;;;;;26.73;15.90;;;;;;;16.11;34.11;96508.25;4903849;29;20032;-69
2023/05/26 07:45:39;;;;;;;20.42;10.32;;;;;;;16.29;33.89;96501.59;4905145;29;20032;-69
2023/05/26 07:48:04;;;;;;;17.80;8.48;;;;;;;16.25;33.76;96501.13;4905269;28;20040;-69
2023/05/26 07:50:30;;;;;;;27.20;16.17;;;;;;;16.13;33.97;96505.38;4904563;28;20036;-69
2023/05/26 07:52:56;;;;;;;26.95;17.63;;;;;;;16.25;33.41;96503.81;4904885;29;20118;-68
2023/05/26 07:55:21;;;;;;;22.42;11.57;;;;;;;16.31;33.71;96502.22;4904052;28;20044;-69
2023/05/26 07:57:46;;;;;;;16.73;9.02;;;;;;;16.50;34.43;96502.63;4904635;29;20295;-69
2023/05/26 08:00:12;;;;;;;19.75;8.20;;;;;;;16.48;33.44;96507.34;4902774;28;20048;-68
2023/05/26 08:02:38;;;;;;;24.92;10.50;;;;;;;16.71;32.93;96504.44;4901429;29;20051;-68
2023/05/26 08:05:04;;;;;;;20.75;13.57;;;;;;;16.69;33.18;96506.47;4900557;29;20028;-69
2023/05/26 08:07:30;;;;;;;19.92;10.25;;;;;;;16.87;32.56;96511.34;4902320;29;20070;-69
2023/05/26 08:09:55;;;;;;;24.17;12.20;;;;;;;16.92;32.64;96510.78;4904710;29;20056;-69
2023/05/26 08:12:21;;;;;;;18.63;9.23;;;;;;;17.39;32.05;96507.53;4903745;29;20051;-68
2023/05/26 08:14:48;;;;;;;21.48;11.60;;;;;;;17.39;32.62;96504.84;4902760;28;20326;-68
2023/05/26 08:17:13;;;;;;;23.83;13.57;;;;;;;17.86;31.24;96515.84;4905168;29;20032;-68
2023/05/26 08:19:38;;;;;;;17.00;6.72;;;;;;;17.89;30.93;96503.81;4904257;28;20040;-69
2023/05/26 08:22:04;;;;;;;20.17;10.43;;;;;;;18.07;30.94;96511.31;4903562;28;20032;-68
2023/05/26 08:24:29;;;;;;;14.73;4.85;;;;;;;18.33;31.06;96509.69;4903226;29;20028;-69
2023/05/26 08:26:55;;;;;;;23.10;9.88;;;;;;;17.97;31.69;96506.31;4903323;28;20040;-68
2023/05/26 08:29:22;;;;;;;22.40;12.27;;;;;;;17.99;30.81;96515.03;4903270;29;21275;-69
2023/05/26 08:31:48;;;;;;;21.75;11.50;;;;;;;17.77;30.33;96517.84;4904216;29;20043;-68
2023/05/26 08:34:13;;;;;;;23.95;11.40;;;;;;;17.99;30.69;96517.75;4904018;28;20399;-68
2023/05/26 08:36:38;;;;;;;16.92;9.02;;;;;;;18.36;30.71;96519.22;4903956;29;20064;-68
2023/05/26 08:39:04;;;;;;;16.60;8.25;;;;;;;18.54;29.60;96522.16;4904170;29;20036;-68
2023/05/26 08:41:35;;;;;;;21.23;10.93;;;;;;;18.63;29.94;96524.66;4902619;29;20373;-68
2023/05/26 08:44:01;;;;;;;22.42;11.93;;;;;;;18.80;29.29;96517.78;4903284;28;20160;-68
2023/05/26 08:46:26;;;;;;;21.23;12.10;;;;;;;18.84;29.04;96520.91;4902967;29;20504;-69
2023/05/26 08:48:52;;;;;;;17.70;7.28;;;;;;;19.66;29.44;96517.00;4902135;29;20040;-69
2023/05/26 08:51:18;;;;;;;14.35;5.30;;;;;;;20.02;28.61;96517.44;4918765;29;20033;-69
2023/05/26 08:53:43;;;;;;;16.83;8.05;;;;;;;19.91;27.98;96520.78;4904414;29;20035;-68
2023/05/26 08:56:09;;;;;;;18.88;12.23;;;;;;;20.18;27.54;96520.66;4932895;28;20047;-68
2023/05/26 08:58:34;;;;;;;19.13;9.48;;;;;;;20.28;27.51;96525.59;4902578;29;20059;-68
2023/05/26 09:01:01;;;;;;;18.40;7.65;;;;;;;19.94;27.38;96529.31;4901073;29;20047;-68
2023/05/26 09:03:26;;;;;;;20.27;10.45;;;;;;;20.02;27.65;96533.66;4901660;29;20036;-69
2023/05/26 09:05:52;;;;;;;20.08;8.60;;;;;;;19.92;27.02;96534.09;4902113;29;20643;-68
2023/05/26 09:08:17;;;;;;;23.67;11.55;;;;;;;19.87;27.52;96527.69;4903741;28;20459;-68
2023/05/26 09:10:42;;;;;;;24.45;10.65;;;;;;;19.99;27.61;96525.16;4904047;28;20044;-68
2023/05/26 09:13:09;;;;;;;22.77;13.15;;;;;;;20.08;27.25;96527.38;4905956;29;20304;-68
2023/05/26 09:15:35;;;;;;;18.10;5.25;;;;;;;20.05;26.64;96532.38;4904554;28;20046;-68
2023/05/26 09:18:07;;;;;;;21.55;13.75;;;;;;;19.82;27.21;96531.03;4906620;29;20590;-68
2023/05/26 09:20:34;;;;;;;18.75;7.53;;;;;;;19.96;27.15;96532.63;4904606;29;20059;-68
2023/05/26 09:22:59;;;;;;;17.10;6.47;;;;;;;19.70;27.52;96522.78;4905217;28;20035;-69
2023/05/26 09:25:34;;;;;;;20.55;9.82;;;;;;;19.44;27.96;96519.13;4904979;29;20407;-68
2023/05/26 09:28:04;;;;;;;14.77;7.80;;;;;;;19.37;27.89;96521.84;4935514;29;20036;-68
2023/05/26 09:30:37;;;;;;;15.10;5.18;;;;;;;18.80;27.79;96531.28;4903869;29;20524;-68
2023/05/26 09:33:06;;;;;;;23.33;12.38;;;;;;;18.62;29.41;96531.91;4905892;29;20169;-68
2023/05/26 09:35:38;;;;;;;14.32;5.47;;;;;;;18.74;28.29;96532.13;4904081;28;20176;-68
2023/05/26 09:38:11;;;;;;;17.85;9.57;;;;;;;19.08;28.85;96532.09;4900328;29;20276;-83
2023/05/26 09:40:44;;;;;;;20.80;13.75;;;;;;;19.11;28.44;96534.38;4919212;29;20099;-84
2023/05/26 09:43:09;;;;;;;27.60;17.05;;;;;;;19.39;27.85;96537.84;4903422;29;20583;-84
2023/05/26 09:45:35;;;;;;;13.43;6.82;;;;;;;19.78;26.78;96541.44;4903935;29;20177;-83
2023/05/26 09:48:05;;;;;;;17.38;8.07;;;;;;;20.26;26.76;96539.31;4905292;28;20135;-83
2023/05/26 09:50:31;;;;;;;15.88;6.13;;;;;;;20.20;26.23;96548.31;4934579;28;20071;-84
2023/05/26 09:52:57;;;;;;;21.13;13.60;;;;;;;20.10;27.19;96548.78;4905421;29;20047;-85
2023/05/26 09:55:22;;;;;;;15.05;7.72;;;;;;;19.97;26.87;96544.28;4905230;28;20051;-84
2023/05/26 09:57:47;;;;;;;23.35;12.13;;;;;;;19.69;27.35;96548.94;4904654;29;20040;-83
2023/05/26 10:00:16;;;;;;;19.23;8.38;;;;;;;19.97;26.81;96550.53;4904248;29;20628;-83
2023/05/26 10:02:41;;;;;;;16.83;7.95;;;;;;;20.07;27.07;96550.06;4904064;29;20388;-84
2023/05/26 10:05:07;;;;;;;17.73;9.10;;;;;;;20.06;26.64;96542.97;4935864;29;20040;-84
2023/05/26 10:07:33;;;;;;;17.35;7.93;;;;;;;19.85;26.93;96552.19;4918118;29;20036;-84
2023/05/26 10:09:59;;;;;;;18.23;9.85;;;;;;;19.77;26.93;96547.88;4919833;29;20115;-83
2023/05/26 10:12:32;;;;;;;14.37;8.20;;;;;;;20.04;27.15;96534.28;4917852;28;20048;-72
2023/05/26 10:14:58;;;;;;;20.40;7.28;;;;;;;20.61;26.48;96532.63;4899662;29;20130;-71
2023/05/26 10:17:24;;;;;;;15.75;6.75;;;;;;;20.95;26.08;96529.66;4904342;29;20507;-72
2023/05/26 10:19:49;;;;;;;10.65;4.00;;;;;;;21.17;24.52;96508.41;4902070;29;20071;-71
2023/05/26 10:22:42;;;;;;;10.75;4.07;;;;;;;21.64;25.50;96528.72;4898600;29;20565;-72
2023/05/26 10:25:26;;;;;;;12.93;5.03;;;;;;;22.06;24.41;96514.44;4902131;29;20024;-72
2023/05/26 10:28:14;;;;;;;12.82;6.25;;;;;;;22.15;24.38;96523.94;4915094;28;20036;-72
2023/05/26 10:30:41;;;;;;;15.90;4.25;;;;;;;22.25;24.53;96523.38;4903851;28;20501;-70
2023/05/26 10:33:10;;;;;;;15.35;5.53;;;;;;;22.64;23.15;96516.75;4933763;29;20472;-71
2023/05/26 10:35:36;;;;;;;17.63;7.10;;;;;;;22.74;23.60;96514.25;4904820;28;20043;-72
2023/05/26 10:38:01;;;;;;;14.43;6.80;;;;;;;22.96;23.32;96518.28;4904734;29;20507;-72
2023/05/26 10:40:32;;;;;;;11.70;6.07;;;;;;;22.96;22.86;96527.25;4903403;29;20048;-71
2023/05/26 10:43:27;;;;;;;12.80;5.70;;;;;;;23.20;22.74;96510.13;4901903;28;20451;-71
2023/05/26 10:46:02;;;;;;;17.17;4.35;;;;;;;22.39;24.10;96521.28;4901201;29;20052;-71
2023/05/26 10:48:41;;;;;;;13.63;5.88;;;;;;;22.27;25.27;96520.41;4933559;28;20543;-71
2023/05/26 10:51:07;;;;;;;14.63;6.90;;;;;;;22.22;24.08;96525.69;4934608;28;20143;-70
2023/05/26 10:53:43;;;;;;;15.32;5.22;;;;;;;22.53;23.39;96523.78;4906071;29;20123;-70
2023/05/26 10:56:12;;;;;;;15.37;7.33;;;;;;;22.46;23.47;96517.59;4902890;28;20051;-71
2023/05/26 10:58:50;;;;;;;12.60;4.57;;;;;;;22.37;23.42;96517.16;4907326;28;20032;-73
2023/05/26 11:01:22;;;;;;;13.45;4.38;;;;;;;22.48;23.14;96520.94;4934037;29;20103;-73
2023/05/26 11:03:48;;;;;;;12.45;5.25;;;;;;;22.97;22.88;96518.03;4903726;28;20062;-71
2023/05/26 11:06:15;;;;;;;15.82;5.97;;;;;;;23.13;22.92;96524.66;4902943;28;20032;-71
2023/05/26 11:08:44;;;;;;;14.35;6.00;;;;;;;22.98;22.91;96519.69;4903012;29;20040;-71
2023/05/26 11:11:11;;;;;;;15.52;7.07;;;;;;;23.56;22.29;96513.63;4902547;29;20140;-70
2023/05/26 11:13:42;;;;;;;15.95;6.72;;;;;;;23.49;22.74;96515.66;4908584;29;20065;-70
2023/05/26 11:16:12;;;;;;;14.68;6.18;;;;;;;23.99;22.28;96516.13;4905867;28;20526;-70
2023/05/26 11:18:39;;;;;;;14.43;4.32;;;;;;;24.37;21.62;96519.25;4903834;28;20504;-70
2023/05/26 11:21:05;;;;;;;12.63;4.40;;;;;;;24.67;21.52;96516.19;4903800;29;20313;-70
2023/05/26 11:23:31;;;;;;;16.98;5.38;;;;;;;24.72;22.30;96515.47;4903841;28;20484;-71
2023/05/26 11:25:56;;;;;;;17.52;6.65;;;;;;;25.12;21.22;96512.81;4905095;29;20032;-72